CHICAGO O'HARE INTL

KORD (ORD)
Chicago, Illinois
Towered

Vatsim Metar:
KORD 011751Z 03014KT 10SM FEW050 19/07 A3023 RMK AO2 SLP236 T01940067 10200 20106 50001

No ATC Online

Traffic

Inbound:
Ident
Type
Name
ETA
Phase
BVX459
B738
Mikael Jensen EKCH
18:26 Z
Cruse
AST195
CRJ7
Richard A Horvath Jr KCTK
Boarding
OAL463
B748
Mike Bourekas LGAV
18:41 Z
Cruse
AAL2098
A320
Antonio Lasley KLGA
18:50 Z
Cruse
AAL9053
A320
Dwayne English KJOT
19:59 Z
Cruse
UAL664
B738
Frederick Cremeens KLAS
19:59 Z
Cruse
ASA138
B738
Kyle Alley KSEA
01:58 Z
Climb
UAL986
B789
Christian Gordon KORD
01:50 Z
Climb
LO3
B78X
Noah Andrews KPWK
02:22 Z
Climb

Outbound:
Ident
Type
Name
Destination
Phase
AAL2302
B738
Florian Mooijaart EHLE
KLGA
Boarding
AAL1002
B738
Kenneth Green KMCO
KDCA
Boarding

IAPs